sensor_id;sensor_type;location;lat;lon;timestamp;pressure;altitude;pressure_sealevel;temperature;humidity
57610;BME280;43435;46.186;9.024;2024-03-06T07:27:26;98473.03;;;10.19;63.31
57610;BME280;43435;46.186;9.024;2024-03-06T07:29:52;98469.97;;;10.22;62.66
57610;BME280;43435;46.186;9.024;2024-03-06T07:32:17;98460.38;;;10.68;60.89
57610;BME280;43435;46.186;9.024;2024-03-06T07:34:43;98455.88;;;10.95;61.16
57610;BME280;43435;46.186;9.024;2024-03-06T07:37:08;98468.19;;;10.89;59.94
57610;BME280;43435;46.186;9.024;2024-03-06T07:39:34;98475.81;;;10.79;59.51
57610;BME280;43435;46.186;9.024;2024-03-06T07:42:00;98476.41;;;10.81;59.64
57610;BME280;43435;46.186;9.024;2024-03-06T07:44:25;98485.22;;;10.75;60.00
57610;BME280;43435;46.186;9.024;2024-03-06T07:46:50;98485.44;;;10.80;60.40
57610;BME280;43435;46.186;9.024;2024-03-06T07:49:15;98494.88;;;10.76;60.32
57610;BME280;43435;46.186;9.024;2024-03-06T07:51:41;98502.88;;;10.76;60.29
57610;BME280;43435;46.186;9.024;2024-03-06T07:54:06;98494.88;;;10.76;60.65
57610;BME280;43435;46.186;9.024;2024-03-06T07:56:33;98501.84;;;10.77;60.64
57610;BME280;43435;46.186;9.024;2024-03-06T07:59:00;98516.41;;;10.81;60.57
57610;BME280;43435;46.186;9.024;2024-03-06T08:01:25;98506.78;;;10.80;60.68
57610;BME280;43435;46.186;9.024;2024-03-06T08:03:51;98511.72;;;10.83;60.55
57610;BME280;43435;46.186;9.024;2024-03-06T08:06:17;98518.03;;;10.82;61.00
57610;BME280;43435;46.186;9.024;2024-03-06T08:08:43;98521.53;;;10.89;60.89
57610;BME280;43435;46.186;9.024;2024-03-06T08:11:15;98522.78;;;10.86;61.49
57610;BME280;43435;46.186;9.024;2024-03-06T08:13:40;98522.38;;;10.83;61.43
57610;BME280;43435;46.186;9.024;2024-03-06T08:16:09;98531.41;;;10.95;61.06
57610;BME280;43435;46.186;9.024;2024-03-06T08:18:35;98524.44;;;10.94;61.21
57610;BME280;43435;46.186;9.024;2024-03-06T08:21:04;98515.78;;;10.92;61.52
57610;BME280;43435;46.186;9.024;2024-03-06T08:23:31;98526.47;;;11.05;61.24
57610;BME280;43435;46.186;9.024;2024-03-06T08:25:57;98528.09;;;11.06;60.87
57610;BME280;43435;46.186;9.024;2024-03-06T08:28:22;98533.44;;;11.06;59.70
57610;BME280;43435;46.186;9.024;2024-03-06T08:30:47;98528.53;;;11.10;59.61
57610;BME280;43435;46.186;9.024;2024-03-06T08:33:13;98532.00;;;11.10;59.54
57610;BME280;43435;46.186;9.024;2024-03-06T08:35:39;98536.53;;;11.10;59.03
57610;BME280;43435;46.186;9.024;2024-03-06T08:38:04;98540.84;;;11.18;58.78
57610;BME280;43435;46.186;9.024;2024-03-06T08:40:31;98524.41;;;11.14;59.26
57610;BME280;43435;46.186;9.024;2024-03-06T08:42:57;98532.81;;;11.24;59.25
57610;BME280;43435;46.186;9.024;2024-03-06T08:45:22;98552.91;;;11.33;59.73
57610;BME280;43435;46.186;9.024;2024-03-06T08:47:50;98542.88;;;11.35;59.68
57610;BME280;43435;46.186;9.024;2024-03-06T08:50:16;98537.72;;;11.41;60.26
57610;BME280;43435;46.186;9.024;2024-03-06T08:52:42;98529.72;;;11.41;59.74
57610;BME280;43435;46.186;9.024;2024-03-06T08:55:08;98535.66;;;11.49;59.55
57610;BME280;43435;46.186;9.024;2024-03-06T08:57:34;98535.84;;;11.54;59.46
57610;BME280;43435;46.186;9.024;2024-03-06T09:00:00;98535.03;;;11.54;57.89
57610;BME280;43435;46.186;9.024;2024-03-06T09:02:26;98529.88;;;11.59;57.92
57610;BME280;43435;46.186;9.024;2024-03-06T09:04:51;98518.59;;;11.64;58.86
57610;BME280;43435;46.186;9.024;2024-03-06T09:07:17;98532.53;;;11.72;59.29
57610;BME280;43435;46.186;9.024;2024-03-06T09:09:43;98536.19;;;11.78;59.22
57610;BME280;43435;46.186;9.024;2024-03-06T09:12:10;98543.78;;;11.81;58.59
57610;BME280;43435;46.186;9.024;2024-03-06T09:14:36;98531.25;;;11.81;58.47
57610;BME280;43435;46.186;9.024;2024-03-06T09:17:01;98536.00;;;11.86;58.18
57610;BME280;43435;46.186;9.024;2024-03-06T09:19:27;98542.75;;;11.89;57.83
57610;BME280;43435;46.186;9.024;2024-03-06T09:21:53;98542.53;;;11.97;57.48
57610;BME280;43435;46.186;9.024;2024-03-06T09:24:19;98539.44;;;12.00;56.88
57610;BME280;43435;46.186;9.024;2024-03-06T09:26:44;98546.84;;;12.04;57.02
57610;BME280;43435;46.186;9.024;2024-03-06T09:29:10;98548.63;;;12.11;56.92
57610;BME280;43435;46.186;9.024;2024-03-06T09:31:35;98544.72;;;12.13;57.05
57610;BME280;43435;46.186;9.024;2024-03-06T09:34:02;98547.19;;;12.15;56.92
57610;BME280;43435;46.186;9.024;2024-03-06T09:36:28;98549.00;;;12.21;56.83
57610;BME280;43435;46.186;9.024;2024-03-06T09:38:53;98535.22;;;12.24;57.06
57610;BME280;43435;46.186;9.024;2024-03-06T09:41:19;98538.16;;;12.16;56.92
57610;BME280;43435;46.186;9.024;2024-03-06T09:43:44;98544.72;;;12.13;56.60
57610;BME280;43435;46.186;9.024;2024-03-06T09:46:10;98543.06;;;12.19;56.57
57610;BME280;43435;46.186;9.024;2024-03-06T09:48:36;98541.00;;;12.21;56.48
57610;BME280;43435;46.186;9.024;2024-03-06T09:51:04;98547.13;;;12.28;54.89
57610;BME280;43435;46.186;9.024;2024-03-06T09:53:29;98553.25;;;12.35;54.80
57610;BME280;43435;46.186;9.024;2024-03-06T09:55:56;98549.09;;;12.46;54.80
57610;BME280;43435;46.186;9.024;2024-03-06T09:58:23;98544.94;;;12.50;52.79
57610;BME280;43435;46.186;9.024;2024-03-06T10:00:49;98544.53;;;12.53;51.60
57610;BME280;43435;46.186;9.024;2024-03-06T10:03:15;98536.28;;;12.54;50.23
57610;BME280;43435;46.186;9.024;2024-03-06T10:05:40;98539.13;;;12.60;49.62
57610;BME280;43435;46.186;9.024;2024-03-06T10:08:06;98560.16;;;12.81;49.18
57610;BME280;43435;46.186;9.024;2024-03-06T10:10:31;98564.50;;;12.82;48.54
57610;BME280;43435;46.186;9.024;2024-03-06T10:12:56;98563.88;;;12.80;48.12
57610;BME280;43435;46.186;9.024;2024-03-06T10:15:22;98560.78;;;12.83;46.30
57610;BME280;43435;46.186;9.024;2024-03-06T10:17:48;98542.59;;;12.92;46.19
57610;BME280;43435;46.186;9.024;2024-03-06T10:20:21;98546.22;;;13.04;45.99
57610;BME280;43435;46.186;9.024;2024-03-06T10:22:51;98545.28;;;13.17;45.99
57610;BME280;43435;46.186;9.024;2024-03-06T10:25:18;98542.34;;;13.25;44.20
57610;BME280;43435;46.186;9.024;2024-03-06T10:27:44;98541.63;;;13.36;43.29
57610;BME280;43435;46.186;9.024;2024-03-06T10:30:10;98536.00;;;13.44;42.40
57610;BME280;43435;46.186;9.024;2024-03-06T10:32:38;98534.22;;;13.57;41.02
57610;BME280;43435;46.186;9.024;2024-03-06T10:35:04;98533.94;;;13.65;39.85
57610;BME280;43435;46.186;9.024;2024-03-06T10:37:32;98554.94;;;13.86;40.62
57610;BME280;43435;46.186;9.024;2024-03-06T10:40:02;98549.25;;;13.94;39.94
57610;BME280;43435;46.186;9.024;2024-03-06T10:42:31;98556.41;;;14.00;39.69
57610;BME280;43435;46.186;9.024;2024-03-06T10:44:59;98566.03;;;14.08;39.47
57610;BME280;43435;46.186;9.024;2024-03-06T10:47:33;98570.34;;;14.09;39.79
57610;BME280;43435;46.186;9.024;2024-03-06T10:49:59;98569.16;;;14.05;38.98
57610;BME280;43435;46.186;9.024;2024-03-06T10:52:25;98573.31;;;14.19;40.03
57610;BME280;43435;46.186;9.024;2024-03-06T10:54:53;98563.69;;;14.30;40.86
57610;BME280;43435;46.186;9.024;2024-03-06T10:57:19;98554.53;;;14.19;42.16
57610;BME280;43435;46.186;9.024;2024-03-06T10:59:45;98563.09;;;14.10;42.33
57610;BME280;43435;46.186;9.024;2024-03-06T11:02:10;98564.91;;;14.16;41.90
57610;BME280;43435;46.186;9.024;2024-03-06T11:04:39;98558.91;;;14.32;41.36
57610;BME280;43435;46.186;9.024;2024-03-06T11:07:05;98560.47;;;14.40;41.35
57610;BME280;43435;46.186;9.024;2024-03-06T11:09:34;98543.53;;;14.39;41.31
57610;BME280;43435;46.186;9.024;2024-03-06T11:12:00;98547.13;;;14.52;40.99
57610;BME280;43435;46.186;9.024;2024-03-06T11:14:31;98542.63;;;14.45;37.45
57610;BME280;43435;46.186;9.024;2024-03-06T11:17:00;98536.22;;;14.46;36.97
57610;BME280;43435;46.186;9.024;2024-03-06T11:19:28;98542.50;;;14.59;36.64
57610;BME280;43435;46.186;9.024;2024-03-06T11:21:53;98551.03;;;14.67;36.96
57610;BME280;43435;46.186;9.024;2024-03-06T11:24:20;98552.47;;;14.82;37.23
57610;BME280;43435;46.186;9.024;2024-03-06T11:26:47;98543.72;;;14.86;36.63
57610;BME280;43435;46.186;9.024;2024-03-06T11:29:16;98537.09;;;14.89;35.91
57610;BME280;43435;46.186;9.024;2024-03-06T11:31:58;98528.59;;;15.04;35.41
57610;BME280;43435;46.186;9.024;2024-03-06T11:34:24;98524.63;;;15.18;34.79
57610;BME280;43435;46.186;9.024;2024-03-06T11:36:53;98518.66;;;15.28;34.39
57610;BME280;43435;46.186;9.024;2024-03-06T11:39:19;98540.50;;;15.31;34.83
57610;BME280;43435;46.186;9.024;2024-03-06T11:41:49;98522.88;;;15.47;33.84
57610;BME280;43435;46.186;9.024;2024-03-06T11:44:15;98520.88;;;15.54;33.61
57610;BME280;43435;46.186;9.024;2024-03-06T11:46:41;98528.09;;;15.54;32.89
57610;BME280;43435;46.186;9.024;2024-03-06T11:49:21;98515.88;;;15.58;33.52
57610;BME280;43435;46.186;9.024;2024-03-06T11:51:54;98516.22;;;15.73;33.52
57610;BME280;43435;46.186;9.024;2024-03-06T11:54:19;98519.69;;;15.85;33.47
57610;BME280;43435;46.186;9.024;2024-03-06T11:56:49;98505.78;;;15.88;32.37
57610;BME280;43435;46.186;9.024;2024-03-06T11:59:16;98504.50;;;15.79;32.36
57610;BME280;43435;46.186;9.024;2024-03-06T12:01:41;98501.34;;;15.82;31.44
57610;BME280;43435;46.186;9.024;2024-03-06T12:04:07;98487.28;;;15.92;31.21
57610;BME280;43435;46.186;9.024;2024-03-06T12:06:33;98481.31;;;15.90;30.79
57610;BME280;43435;46.186;9.024;2024-03-06T12:08:59;98519.09;;;15.95;31.92
57610;BME280;43435;46.186;9.024;2024-03-06T12:11:24;98489.56;;;15.83;31.37
57610;BME280;43435;46.186;9.024;2024-03-06T12:13:54;98488.38;;;15.79;31.19
57610;BME280;43435;46.186;9.024;2024-03-06T12:16:19;98491.19;;;15.84;31.62
57610;BME280;43435;46.186;9.024;2024-03-06T12:18:45;98485.50;;;15.98;31.40
57610;BME280;43435;46.186;9.024;2024-03-06T12:21:11;98480.28;;;15.91;31.20
57610;BME280;43435;46.186;9.024;2024-03-06T12:23:36;98498.88;;;15.92;29.74
57610;BME280;43435;46.186;9.024;2024-03-06T12:26:03;98487.56;;;15.79;29.54
57610;BME280;43435;46.186;9.024;2024-03-06T12:28:29;98478.78;;;15.83;29.44
57610;BME280;43435;46.186;9.024;2024-03-06T12:30:54;98476.00;;;15.78;29.76
57610;BME280;43435;46.186;9.024;2024-03-06T12:33:19;98460.28;;;15.87;29.54
57610;BME280;43435;46.186;9.024;2024-03-06T12:35:45;98470.28;;;15.75;29.55
57610;BME280;43435;46.186;9.024;2024-03-06T12:38:15;98462.53;;;15.78;29.11
57610;BME280;43435;46.186;9.024;2024-03-06T12:40:41;98473.88;;;15.80;29.26
57610;BME280;43435;46.186;9.024;2024-03-06T12:43:07;98483.50;;;15.76;28.87
57610;BME280;43435;46.186;9.024;2024-03-06T12:45:34;98480.34;;;15.67;29.42
57610;BME280;43435;46.186;9.024;2024-03-06T12:47:59;98476.72;;;15.50;29.64
57610;BME280;43435;46.186;9.024;2024-03-06T12:50:25;98476.03;;;15.55;28.94
57610;BME280;43435;46.186;9.024;2024-03-06T12:52:50;98480.09;;;15.45;28.93
57610;BME280;43435;46.186;9.024;2024-03-06T12:55:17;98469.34;;;15.57;29.04
57610;BME280;43435;46.186;9.024;2024-03-06T12:57:45;98456.03;;;15.39;29.00
57610;BME280;43435;46.186;9.024;2024-03-06T13:00:10;98453.38;;;15.27;29.21
57610;BME280;43435;46.186;9.024;2024-03-06T13:02:42;98454.53;;;15.31;29.47
57610;BME280;43435;46.186;9.024;2024-03-06T13:05:07;98458.72;;;15.39;28.61
57610;BME280;43435;46.186;9.024;2024-03-06T13:07:32;98455.56;;;15.42;28.94
57610;BME280;43435;46.186;9.024;2024-03-06T13:09:58;98453.81;;;15.48;29.02
57610;BME280;43435;46.186;9.024;2024-03-06T13:12:23;98457.94;;;15.50;29.60
57610;BME280;43435;46.186;9.024;2024-03-06T13:14:51;98453.13;;;15.40;29.08
57610;BME280;43435;46.186;9.024;2024-03-06T13:17:16;98437.00;;;15.40;28.20
57610;BME280;43435;46.186;9.024;2024-03-06T13:19:42;98442.94;;;15.42;28.58
57610;BME280;43435;46.186;9.024;2024-03-06T13:22:07;98439.81;;;15.45;28.44
57610;BME280;43435;46.186;9.024;2024-03-06T13:24:32;98455.81;;;15.52;27.91
57610;BME280;43435;46.186;9.024;2024-03-06T13:26:59;98427.38;;;15.68;27.87
57610;BME280;43435;46.186;9.024;2024-03-06T13:29:24;98436.47;;;15.79;27.97
57610;BME280;43435;46.186;9.024;2024-03-06T13:31:50;98451.31;;;15.81;27.91
57610;BME280;43435;46.186;9.024;2024-03-06T13:34:15;98431.56;;;15.87;27.77
57610;BME280;43435;46.186;9.024;2024-03-06T13:36:41;98438.59;;;16.05;26.97
57610;BME280;43435;46.186;9.024;2024-03-06T13:39:06;98442.19;;;16.11;27.50
57610;BME280;43435;46.186;9.024;2024-03-06T13:41:32;98420.06;;;16.21;27.19
57610;BME280;43435;46.186;9.024;2024-03-06T13:43:57;98435.00;;;16.28;26.95
57610;BME280;43435;46.186;9.024;2024-03-06T13:46:22;98418.19;;;16.21;26.92
57610;BME280;43435;46.186;9.024;2024-03-06T13:48:47;98430.44;;;16.29;26.53
57610;BME280;43435;46.186;9.024;2024-03-06T13:51:13;98419.09;;;16.43;26.46
57610;BME280;43435;46.186;9.024;2024-03-06T13:53:38;98430.94;;;16.59;27.06
57610;BME280;43435;46.186;9.024;2024-03-06T13:56:03;98420.00;;;16.66;26.95
57610;BME280;43435;46.186;9.024;2024-03-06T13:58:29;98446.06;;;16.77;26.97
57610;BME280;43435;46.186;9.024;2024-03-06T14:00:54;98456.91;;;16.82;26.19
57610;BME280;43435;46.186;9.024;2024-03-06T14:03:19;98443.03;;;16.74;26.60
57610;BME280;43435;46.186;9.024;2024-03-06T14:05:45;98437.13;;;16.60;26.13
57610;BME280;43435;46.186;9.024;2024-03-06T14:08:11;98432.03;;;16.75;26.50
57610;BME280;43435;46.186;9.024;2024-03-06T14:10:38;98435.13;;;16.84;26.38
57610;BME280;43435;46.186;9.024;2024-03-06T14:13:04;98433.09;;;16.91;26.61
57610;BME280;43435;46.186;9.024;2024-03-06T14:15:30;98432.84;;;16.93;26.58
57610;BME280;43435;46.186;9.024;2024-03-06T14:17:55;98460.75;;;17.03;26.08
57610;BME280;43435;46.186;9.024;2024-03-06T14:20:21;98446.41;;;16.98;25.89
57610;BME280;43435;46.186;9.024;2024-03-06T14:22:47;98432.94;;;16.98;25.61
57610;BME280;43435;46.186;9.024;2024-03-06T14:25:13;98441.81;;;16.98;25.13
57610;BME280;43435;46.186;9.024;2024-03-06T14:27:38;98433.47;;;17.00;25.55
57610;BME280;43435;46.186;9.024;2024-03-06T14:30:05;98426.16;;;16.95;25.75
57610;BME280;43435;46.186;9.024;2024-03-06T14:32:34;98434.94;;;17.07;26.00
57610;BME280;43435;46.186;9.024;2024-03-06T14:34:59;98431.66;;;17.22;25.51
57610;BME280;43435;46.186;9.024;2024-03-06T14:37:24;98428.50;;;17.30;25.82
57610;BME280;43435;46.186;9.024;2024-03-06T14:39:50;98441.50;;;17.33;25.69
57610;BME280;43435;46.186;9.024;2024-03-06T14:42:16;98423.34;;;17.46;25.53
57610;BME280;43435;46.186;9.024;2024-03-06T14:44:41;98421.38;;;17.41;25.21
57610;BME280;43435;46.186;9.024;2024-03-06T14:47:08;98431.13;;;17.42;24.99
57610;BME280;43435;46.186;9.024;2024-03-06T14:49:34;98436.59;;;17.30;24.63
57610;BME280;43435;46.186;9.024;2024-03-06T14:51:59;98443.16;;;17.34;24.06
57610;BME280;43435;46.186;9.024;2024-03-06T14:54:25;98430.66;;;17.28;24.56
57610;BME280;43435;46.186;9.024;2024-03-06T14:56:51;98426.25;;;17.22;24.87
57610;BME280;43435;46.186;9.024;2024-03-06T14:59:17;98436.09;;;17.33;24.99
57610;BME280;43435;46.186;9.024;2024-03-06T15:01:43;98430.47;;;17.35;24.99
57610;BME280;43435;46.186;9.024;2024-03-06T15:04:09;98430.81;;;17.38;24.59
57610;BME280;43435;46.186;9.024;2024-03-06T15:06:37;98436.50;;;17.42;24.55
57610;BME280;43435;46.186;9.024;2024-03-06T15:09:03;98443.06;;;17.29;25.00
57610;BME280;43435;46.186;9.024;2024-03-06T15:11:29;98455.03;;;17.17;24.79
57610;BME280;43435;46.186;9.024;2024-03-06T15:13:57;98435.56;;;17.14;26.00
57610;BME280;43435;46.186;9.024;2024-03-06T15:16:23;98437.84;;;17.83;37.57
57610;BME280;43435;46.186;9.024;2024-03-06T15:18:48;98430.22;;;17.75;32.28
57610;BME280;43435;46.186;9.024;2024-03-06T15:21:13;98425.94;;;17.79;30.57
57610;BME280;43435;46.186;9.024;2024-03-06T15:23:39;98429.06;;;17.71;29.54
57610;BME280;43435;46.186;9.024;2024-03-06T15:26:04;98436.47;;;17.81;29.30
57610;BME280;43435;46.186;9.024;2024-03-06T15:28:30;98448.22;;;17.97;28.94
57610;BME280;43435;46.186;9.024;2024-03-06T15:30:55;98434.88;;;17.63;25.01
57610;BME280;43435;46.186;9.024;2024-03-06T15:33:21;98438.28;;;17.14;25.66
57610;BME280;43435;46.186;9.024;2024-03-06T15:35:47;98432.25;;;17.07;25.01
57610;BME280;43435;46.186;9.024;2024-03-06T15:38:12;98446.94;;;17.17;25.93
57610;BME280;43435;46.186;9.024;2024-03-06T15:40:37;98439.56;;;17.51;25.20
57610;BME280;43435;46.186;9.024;2024-03-06T15:43:03;98470.88;;;17.74;24.94
57610;BME280;43435;46.186;9.024;2024-03-06T15:45:28;98446.78;;;17.67;24.85
57610;BME280;43435;46.186;9.024;2024-03-06T15:47:54;98447.72;;;18.00;25.74
57610;BME280;43435;46.186;9.024;2024-03-06T15:50:19;98437.38;;;18.14;24.88
57610;BME280;43435;46.186;9.024;2024-03-06T15:52:45;98454.44;;;18.19;24.55
57610;BME280;43435;46.186;9.024;2024-03-06T15:55:11;98470.03;;;17.90;23.82
57610;BME280;43435;46.186;9.024;2024-03-06T15:57:36;98471.22;;;17.77;24.34
57610;BME280;43435;46.186;9.024;2024-03-06T16:00:11;98455.66;;;17.84;24.19
57610;BME280;43435;46.186;9.024;2024-03-06T16:02:40;98453.03;;;17.90;23.62
57610;BME280;43435;46.186;9.024;2024-03-06T16:05:06;98462.47;;;18.14;24.36
57610;BME280;43435;46.186;9.024;2024-03-06T16:07:33;98459.56;;;18.21;23.68
57610;BME280;43435;46.186;9.024;2024-03-06T16:10:01;98462.50;;;17.92;23.68
57610;BME280;43435;46.186;9.024;2024-03-06T16:12:26;98461.53;;;18.03;24.19
57610;BME280;43435;46.186;9.024;2024-03-06T16:14:52;98478.97;;;17.96;24.56
57610;BME280;43435;46.186;9.024;2024-03-06T16:17:18;98479.38;;;17.82;24.11
57610;BME280;43435;46.186;9.024;2024-03-06T16:19:43;98483.88;;;17.77;25.25
57610;BME280;43435;46.186;9.024;2024-03-06T16:22:08;98515.53;;;17.65;24.19
57610;BME280;43435;46.186;9.024;2024-03-06T16:24:34;98473.78;;;17.28;24.07
57610;BME280;43435;46.186;9.024;2024-03-06T16:27:00;98475.22;;;17.36;23.86
57610;BME280;43435;46.186;9.024;2024-03-06T16:29:25;98479.13;;;17.45;24.48
57610;BME280;43435;46.186;9.024;2024-03-06T16:31:51;98499.69;;;17.51;24.95
57610;BME280;43435;46.186;9.024;2024-03-06T16:34:17;98486.00;;;17.36;24.96
57610;BME280;43435;46.186;9.024;2024-03-06T16:36:46;98493.19;;;17.30;24.69
57610;BME280;43435;46.186;9.024;2024-03-06T16:39:12;98501.78;;;17.27;24.70
57610;BME280;43435;46.186;9.024;2024-03-06T16:41:40;98513.72;;;17.31;24.69
57610;BME280;43435;46.186;9.024;2024-03-06T16:44:05;98503.34;;;17.23;25.00
57610;BME280;43435;46.186;9.024;2024-03-06T16:46:31;98499.81;;;17.23;24.77
57610;BME280;43435;46.186;9.024;2024-03-06T16:48:56;98514.34;;;17.38;24.90
57610;BME280;43435;46.186;9.024;2024-03-06T16:51:21;98511.66;;;17.38;24.60
57610;BME280;43435;46.186;9.024;2024-03-06T16:53:47;98497.75;;;17.47;24.54
57610;BME280;43435;46.186;9.024;2024-03-06T16:56:13;98523.16;;;17.51;24.75
57610;BME280;43435;46.186;9.024;2024-03-06T16:58:38;98542.34;;;17.54;24.14
57610;BME280;43435;46.186;9.024;2024-03-06T17:01:03;98528.47;;;17.29;23.71
57610;BME280;43435;46.186;9.024;2024-03-06T17:03:29;98541.41;;;17.10;23.73
57610;BME280;43435;46.186;9.024;2024-03-06T17:05:54;98530.78;;;16.86;24.25
57610;BME280;43435;46.186;9.024;2024-03-06T17:08:19;98533.63;;;16.80;24.77
57610;BME280;43435;46.186;9.024;2024-03-06T17:10:44;98544.44;;;16.68;24.47
57610;BME280;43435;46.186;9.024;2024-03-06T17:13:10;98542.75;;;16.50;24.93
57610;BME280;43435;46.186;9.024;2024-03-06T17:15:35;98533.34;;;16.36;24.93
57610;BME280;43435;46.186;9.024;2024-03-06T17:18:00;98552.56;;;16.28;25.17
57610;BME280;43435;46.186;9.024;2024-03-06T17:20:26;98553.16;;;16.18;25.72
57610;BME280;43435;46.186;9.024;2024-03-06T17:22:51;98555.66;;;16.08;26.15
57610;BME280;43435;46.186;9.024;2024-03-06T17:25:16;98550.06;;;15.98;26.69
57610;BME280;43435;46.186;9.024;2024-03-06T17:27:43;98557.09;;;15.99;26.41
57610;BME280;43435;46.186;9.024;2024-03-06T17:30:09;98551.16;;;15.73;26.71
57610;BME280;43435;46.186;9.024;2024-03-06T17:32:35;98581.31;;;15.75;27.02
57610;BME280;43435;46.186;9.024;2024-03-06T17:35:00;98563.09;;;15.65;27.24
57610;BME280;43435;46.186;9.024;2024-03-06T17:37:28;98595.91;;;15.67;27.39
57610;BME280;43435;46.186;9.024;2024-03-06T17:39:54;98579.06;;;15.60;27.78
57610;BME280;43435;46.186;9.024;2024-03-06T17:42:19;98575.31;;;15.50;27.29
57610;BME280;43435;46.186;9.024;2024-03-06T17:44:44;98585.34;;;15.42;27.77
57610;BME280;43435;46.186;9.024;2024-03-06T17:47:09;98592.41;;;15.43;28.28
57610;BME280;43435;46.186;9.024;2024-03-06T17:49:37;98601.84;;;15.34;28.60
57610;BME280;43435;46.186;9.024;2024-03-06T17:52:03;98593.16;;;15.20;28.31
57610;BME280;43435;46.186;9.024;2024-03-06T17:54:29;98598.88;;;15.24;29.02
57610;BME280;43435;46.186;9.024;2024-03-06T17:56:54;98589.53;;;15.15;28.33
57610;BME280;43435;46.186;9.024;2024-03-06T17:59:23;98597.59;;;15.15;28.64
57610;BME280;43435;46.186;9.024;2024-03-06T18:01:48;98590.72;;;15.19;28.77
57610;BME280;43435;46.186;9.024;2024-03-06T18:04:14;98609.63;;;15.24;28.87
57610;BME280;43435;46.186;9.024;2024-03-06T18:06:39;98613.25;;;15.18;28.99
57610;BME280;43435;46.186;9.024;2024-03-06T18:09:04;98599.69;;;15.13;28.63
57610;BME280;43435;46.186;9.024;2024-03-06T18:11:35;98596.06;;;14.95;29.20
57610;BME280;43435;46.186;9.024;2024-03-06T18:14:00;98611.72;;;14.98;29.71
57610;BME280;43435;46.186;9.024;2024-03-06T18:16:25;98617.09;;;14.98;29.94
57610;BME280;43435;46.186;9.024;2024-03-06T18:18:50;98606.44;;;14.92;30.31
57610;BME280;43435;46.186;9.024;2024-03-06T18:21:16;98617.47;;;14.84;30.73
57610;BME280;43435;46.186;9.024;2024-03-06T18:23:42;98616.66;;;14.83;30.84
57610;BME280;43435;46.186;9.024;2024-03-06T18:26:07;98611.25;;;14.71;30.85
57610;BME280;43435;46.186;9.024;2024-03-06T18:28:32;98617.44;;;14.72;30.93
57610;BME280;43435;46.186;9.024;2024-03-06T18:30:57;98613.00;;;14.66;31.09
57610;BME280;43435;46.186;9.024;2024-03-06T18:33:23;98620.34;;;14.70;31.62
57610;BME280;43435;46.186;9.024;2024-03-06T18:35:48;98620.44;;;14.64;32.15
57610;BME280;43435;46.186;9.024;2024-03-06T18:38:14;98633.50;;;14.60;32.08
57610;BME280;43435;46.186;9.024;2024-03-06T18:40:39;98636.41;;;14.59;31.48
57610;BME280;43435;46.186;9.024;2024-03-06T18:43:04;98621.81;;;14.55;31.36
57610;BME280;43435;46.186;9.024;2024-03-06T18:45:30;98632.06;;;14.58;32.22
57610;BME280;43435;46.186;9.024;2024-03-06T18:47:55;98631.34;;;14.50;32.24
57610;BME280;43435;46.186;9.024;2024-03-06T18:50:22;98641.47;;;14.48;32.59
57610;BME280;43435;46.186;9.024;2024-03-06T18:52:48;98639.66;;;14.42;32.73
57610;BME280;43435;46.186;9.024;2024-03-06T18:55:14;98643.63;;;14.40;32.50
57610;BME280;43435;46.186;9.024;2024-03-06T18:57:39;98632.53;;;14.36;32.58
57610;BME280;43435;46.186;9.024;2024-03-06T19:00:05;98635.66;;;14.33;32.80
57610;BME280;43435;46.186;9.024;2024-03-06T19:02:32;98630.00;;;14.23;32.74
57610;BME280;43435;46.186;9.024;2024-03-06T19:04:57;98633.50;;;14.23;32.85
57610;BME280;43435;46.186;9.024;2024-03-06T19:07:22;98639.09;;;14.22;32.23
57610;BME280;43435;46.186;9.024;2024-03-06T19:09:48;98640.13;;;14.21;32.17
57610;BME280;43435;46.186;9.024;2024-03-06T19:12:14;98641.63;;;14.17;32.17
57610;BME280;43435;46.186;9.024;2024-03-06T19:14:40;98653.75;;;14.19;32.18
57610;BME280;43435;46.186;9.024;2024-03-06T19:17:06;98656.06;;;14.16;32.44
57610;BME280;43435;46.186;9.024;2024-03-06T19:19:32;98653.31;;;14.04;32.45
57610;BME280;43435;46.186;9.024;2024-03-06T19:21:57;98654.19;;;13.98;31.86
57610;BME280;43435;46.186;9.024;2024-03-06T19:24:23;98658.88;;;14.02;32.03
57610;BME280;43435;46.186;9.024;2024-03-06T19:26:49;98657.47;;;14.00;32.11
57610;BME280;43435;46.186;9.024;2024-03-06T19:29:14;98655.81;;;13.99;31.87
57610;BME280;43435;46.186;9.024;2024-03-06T19:31:39;98658.13;;;13.95;32.13
57610;BME280;43435;46.186;9.024;2024-03-06T19:34:05;98654.63;;;13.95;31.91
57610;BME280;43435;46.186;9.024;2024-03-06T19:36:31;98655.75;;;13.87;32.03
57610;BME280;43435;46.186;9.024;2024-03-06T19:38:56;98643.69;;;13.78;32.43
57610;BME280;43435;46.186;9.024;2024-03-06T19:41:21;98656.03;;;13.79;32.65
57610;BME280;43435;46.186;9.024;2024-03-06T19:43:47;98660.72;;;13.84;32.57
57610;BME280;43435;46.186;9.024;2024-03-06T19:46:12;98657.59;;;13.87;32.11
57610;BME280;43435;46.186;9.024;2024-03-06T19:48:37;98655.16;;;13.85;32.56
57610;BME280;43435;46.186;9.024;2024-03-06T19:51:03;98654.41;;;13.78;32.80
57610;BME280;43435;46.186;9.024;2024-03-06T19:53:30;98659.31;;;13.81;32.78
57610;BME280;43435;46.186;9.024;2024-03-06T19:55:55;98657.94;;;13.72;32.74
57610;BME280;43435;46.186;9.024;2024-03-06T19:58:21;98665.22;;;13.65;33.96
57610;BME280;43435;46.186;9.024;2024-03-06T20:00:47;98657.03;;;13.60;33.88
57610;BME280;43435;46.186;9.024;2024-03-06T20:03:12;98660.91;;;13.64;34.08
57610;BME280;43435;46.186;9.024;2024-03-06T20:05:37;98660.31;;;13.62;34.22
57610;BME280;43435;46.186;9.024;2024-03-06T20:08:03;98667.91;;;13.65;33.99
57610;BME280;43435;46.186;9.024;2024-03-06T20:10:29;98659.09;;;13.58;34.63
57610;BME280;43435;46.186;9.024;2024-03-06T20:12:54;98663.44;;;13.59;34.46
57610;BME280;43435;46.186;9.024;2024-03-06T20:15:20;98654.19;;;13.54;34.26
57610;BME280;43435;46.186;9.024;2024-03-06T20:17:45;98664.03;;;13.61;34.03
57610;BME280;43435;46.186;9.024;2024-03-06T20:20:10;98674.59;;;13.56;34.05